createdAt,value
2019-02-06T00:00:36.871Z,0.00
2019-02-06T00:01:36.868Z,0.00
2019-02-06T00:02:36.910Z,0.00
2019-02-06T00:03:36.842Z,0.00
2019-02-06T00:04:36.832Z,0.00
2019-02-06T00:05:36.817Z,0.00
2019-02-06T00:06:36.808Z,0.00
2019-02-06T00:07:36.795Z,0.00
2019-02-06T00:08:36.829Z,0.00
2019-02-06T00:09:36.773Z,0.00
2019-02-06T00:10:36.764Z,0.00
2019-02-06T00:11:36.747Z,0.00
2019-02-06T00:12:36.768Z,0.00
2019-02-06T00:13:36.759Z,0.00
2019-02-06T00:14:36.718Z,0.00
2019-02-06T00:15:36.723Z,0.00
2019-02-06T00:16:36.705Z,0.00
2019-02-06T00:17:36.694Z,0.00
2019-02-06T00:18:36.705Z,0.00
2019-02-06T00:19:36.667Z,0.00
2019-02-06T00:20:36.657Z,0.00
2019-02-06T00:21:36.641Z,0.00
2019-02-06T00:22:36.653Z,0.00
2019-02-06T00:23:36.645Z,0.00
2019-02-06T00:24:36.603Z,0.00
2019-02-06T00:25:36.599Z,0.00
2019-02-06T00:26:36.602Z,0.00
2019-02-06T00:27:36.587Z,0.00
2019-02-06T00:28:36.564Z,0.00
2019-02-06T00:29:36.594Z,0.00
2019-02-06T00:30:36.539Z,0.00
2019-02-06T00:31:36.559Z,0.00
2019-02-06T00:32:36.547Z,0.00
2019-02-06T00:33:36.530Z,0.00
2019-02-06T00:34:36.519Z,0.00
2019-02-06T00:35:36.484Z,0.00
2019-02-06T00:36:36.471Z,0.00
2019-02-06T00:37:36.496Z,0.00
2019-02-06T00:38:36.455Z,0.00
2019-02-06T00:39:36.477Z,0.00
2019-02-06T00:40:36.430Z,0.00
2019-02-06T00:41:36.422Z,0.00
2019-02-06T00:42:36.416Z,0.00
2019-02-06T00:43:36.398Z,0.00
2019-02-06T00:44:36.403Z,0.00
2019-02-06T00:45:36.402Z,0.00
2019-02-06T00:46:36.362Z,0.00
2019-02-06T00:47:36.361Z,0.00
2019-02-06T00:48:36.352Z,0.00
2019-02-06T00:49:36.333Z,0.00
2019-02-06T00:50:36.388Z,0.00
2019-02-06T00:51:36.307Z,0.00
2019-02-06T00:52:36.307Z,0.00
2019-02-06T00:53:36.294Z,0.00
2019-02-06T00:54:36.283Z,0.00
2019-02-06T00:55:36.297Z,0.00
2019-02-06T00:56:36.256Z,0.00
2019-02-06T00:57:36.248Z,0.00
2019-02-06T00:58:36.230Z,0.00
2019-02-06T00:59:36.283Z,0.00
2019-02-06T01:00:36.263Z,0.00
2019-02-06T01:01:36.220Z,0.00
2019-02-06T01:02:36.184Z,0.00
2019-02-06T01:03:36.183Z,0.00
2019-02-06T01:04:36.168Z,0.00
2019-02-06T01:05:38.339Z,0.00
2019-02-06T01:06:36.171Z,0.00
2019-02-06T01:07:36.147Z,0.00
2019-02-06T01:08:36.125Z,0.00
2019-02-06T01:09:36.127Z,0.00
2019-02-06T01:10:36.104Z,0.00
2019-02-06T01:11:36.140Z,0.00
2019-02-06T01:12:36.088Z,0.00
2019-02-06T01:13:36.084Z,0.00
2019-02-06T01:14:36.054Z,0.00
2019-02-06T01:15:36.058Z,0.00
2019-02-06T01:16:36.042Z,0.00
2019-02-06T01:17:36.054Z,0.00
2019-02-06T01:18:36.008Z,0.00
2019-02-06T01:19:36.019Z,0.00
2019-02-06T01:20:35.987Z,0.00
2019-02-06T01:21:35.985Z,0.00
2019-02-06T01:22:36.059Z,0.00
2019-02-06T01:23:35.954Z,0.00
2019-02-06T01:24:35.957Z,0.00
2019-02-06T01:25:36.703Z,0.00
2019-02-06T01:26:35.920Z,0.00
2019-02-06T01:27:35.972Z,0.00
2019-02-06T01:28:35.903Z,0.00
2019-02-06T01:29:35.916Z,0.00
2019-02-06T01:30:35.878Z,0.00
2019-02-06T01:31:35.868Z,0.00
2019-02-06T01:32:35.854Z,0.00
2019-02-06T01:33:35.875Z,0.00
2019-02-06T01:34:35.847Z,0.00
2019-02-06T01:35:35.841Z,0.00
2019-02-06T01:36:35.819Z,0.00
2019-02-06T01:37:35.799Z,0.00
2019-02-06T01:38:35.822Z,0.00
2019-02-06T01:39:35.796Z,0.00
2019-02-06T01:40:35.767Z,0.00
2019-02-06T01:41:35.759Z,0.00
2019-02-06T01:42:35.741Z,0.00
2019-02-06T01:43:35.782Z,0.00
2019-02-06T01:44:35.725Z,0.00
2019-02-06T01:45:35.718Z,0.00
2019-02-06T01:46:35.699Z,0.00
2019-02-06T01:47:35.693Z,0.00
2019-02-06T01:48:35.730Z,0.00
2019-02-06T01:49:35.691Z,0.00
2019-02-06T01:50:35.659Z,0.00
2019-02-06T01:51:35.660Z,0.00
2019-02-06T01:52:35.640Z,0.00
2019-02-06T01:53:35.650Z,0.00
2019-02-06T01:54:35.650Z,0.00
2019-02-06T01:55:35.599Z,0.00
2019-02-06T01:56:35.589Z,0.00
2019-02-06T01:57:35.579Z,0.00
2019-02-06T01:58:35.573Z,0.00
2019-02-06T01:59:35.577Z,0.00
2019-02-06T02:00:35.552Z,0.00
2019-02-06T02:01:35.531Z,0.00
2019-02-06T02:02:35.527Z,0.00
2019-02-06T02:03:35.509Z,0.00
2019-02-06T02:04:35.550Z,0.00
2019-02-06T02:05:37.825Z,0.00
2019-02-06T02:06:35.486Z,0.00
2019-02-06T02:07:35.472Z,0.00
2019-02-06T02:08:35.457Z,0.00
2019-02-06T02:09:35.473Z,0.00
2019-02-06T02:10:35.491Z,0.00
2019-02-06T02:11:35.600Z,0.00
2019-02-06T02:12:35.416Z,0.00
2019-02-06T02:13:35.399Z,0.00
2019-02-06T02:14:35.404Z,0.00
2019-02-06T02:15:35.411Z,0.00
2019-02-06T02:16:35.366Z,0.00
2019-02-06T02:17:35.382Z,0.00
2019-02-06T02:18:35.358Z,0.00
2019-02-06T02:19:35.337Z,0.00
2019-02-06T02:20:35.369Z,0.00
2019-02-06T02:21:35.313Z,0.00
2019-02-06T02:22:35.316Z,0.00
2019-02-06T02:23:35.296Z,0.00
2019-02-06T02:24:35.278Z,0.00
2019-02-06T02:25:35.268Z,0.00
2019-02-06T02:26:35.278Z,0.00
2019-02-06T02:27:35.244Z,0.00
2019-02-06T02:28:35.239Z,0.00
2019-02-06T02:29:35.236Z,0.00
2019-02-06T02:30:35.223Z,0.00
2019-02-06T02:31:35.224Z,0.00
2019-02-06T02:32:35.208Z,0.00
2019-02-06T02:33:35.177Z,0.00
2019-02-06T02:34:35.169Z,0.00
2019-02-06T02:35:35.161Z,0.00
2019-02-06T02:36:35.177Z,0.00
2019-02-06T02:37:35.133Z,0.00
2019-02-06T02:38:35.129Z,0.00
2019-02-06T02:39:35.121Z,0.00
2019-02-06T02:40:35.107Z,0.00
2019-02-06T02:41:35.132Z,0.00
2019-02-06T02:42:35.654Z,0.00
2019-02-06T02:43:35.077Z,0.00
2019-02-06T02:44:35.062Z,0.00
2019-02-06T02:45:35.043Z,0.00
2019-02-06T02:46:35.062Z,0.00
2019-02-06T02:47:35.068Z,0.00
2019-02-06T02:48:35.016Z,0.00
2019-02-06T02:49:35.004Z,0.00
2019-02-06T02:50:35.169Z,0.00
2019-02-06T02:51:34.987Z,0.00
2019-02-06T02:52:35.018Z,0.00
2019-02-06T02:53:34.991Z,0.00
2019-02-06T02:54:34.968Z,0.00
2019-02-06T02:55:34.932Z,0.00
2019-02-06T02:56:34.932Z,0.00
2019-02-06T02:57:34.961Z,0.00
2019-02-06T02:58:34.910Z,0.00
2019-02-06T02:59:34.904Z,0.00
2019-02-06T03:00:34.885Z,0.00
2019-02-06T03:01:34.871Z,0.00
2019-02-06T03:02:34.884Z,0.00
2019-02-06T03:03:34.874Z,0.00
2019-02-06T03:04:34.842Z,0.00
2019-02-06T03:05:34.830Z,0.00
2019-02-06T03:06:34.817Z,0.00
2019-02-06T03:07:34.811Z,0.00
2019-02-06T03:08:34.833Z,0.00
2019-02-06T03:09:34.781Z,0.00
2019-02-06T03:10:34.776Z,0.00
2019-02-06T03:11:34.761Z,0.00
2019-02-06T03:12:34.752Z,0.00
2019-02-06T03:13:34.742Z,0.00
2019-02-06T03:14:34.761Z,0.00
2019-02-06T03:15:34.729Z,0.00
2019-02-06T03:16:34.704Z,0.00
2019-02-06T03:17:34.716Z,0.00
2019-02-06T03:18:34.684Z,0.00
2019-02-06T03:19:34.693Z,0.00
2019-02-06T03:20:34.669Z,0.00
2019-02-06T03:21:34.658Z,0.00
2019-02-06T03:22:34.643Z,0.00
2019-02-06T03:23:34.633Z,0.00
2019-02-06T03:24:34.658Z,0.00
2019-02-06T03:25:34.608Z,0.00
2019-02-06T03:26:34.599Z,0.00
2019-02-06T03:27:34.590Z,0.00
2019-02-06T03:28:34.575Z,0.00
2019-02-06T03:29:34.597Z,0.00
2019-02-06T03:30:34.582Z,0.00
2019-02-06T03:31:34.591Z,0.00
2019-02-06T03:32:34.546Z,0.00
2019-02-06T03:33:34.527Z,0.00
2019-02-06T03:34:34.510Z,0.00
2019-02-06T03:35:34.550Z,0.00
2019-02-06T03:36:40.371Z,0.00
2019-02-06T03:37:35.481Z,0.00
2019-02-06T03:38:34.470Z,0.00
2019-02-06T03:39:34.492Z,0.00
2019-02-06T03:40:34.490Z,0.00
2019-02-06T03:41:34.435Z,0.00
2019-02-06T03:42:34.434Z,0.00
2019-02-06T03:43:34.453Z,0.00
2019-02-06T03:44:34.404Z,0.00
2019-02-06T03:45:34.412Z,0.00
2019-02-06T03:46:34.408Z,0.00
2019-02-06T03:47:34.374Z,0.00
2019-02-06T03:48:34.371Z,0.00
2019-02-06T03:49:34.370Z,0.00
2019-02-06T03:50:34.383Z,0.00
2019-02-06T03:51:34.411Z,0.00
2019-02-06T03:52:34.335Z,0.00
2019-02-06T03:53:34.307Z,0.00
2019-02-06T03:54:34.313Z,0.00
2019-02-06T03:55:34.290Z,0.00
2019-02-06T03:56:34.319Z,0.00
2019-02-06T03:57:34.298Z,0.00
2019-02-06T03:58:34.261Z,0.00
2019-02-06T03:59:34.267Z,0.00
2019-02-06T04:00:34.243Z,0.00
2019-02-06T04:01:34.229Z,0.00
2019-02-06T04:02:34.235Z,0.00
2019-02-06T04:03:34.213Z,0.00
2019-02-06T04:04:34.187Z,0.00
2019-02-06T04:05:34.186Z,0.00
2019-02-06T04:06:34.185Z,0.00
2019-02-06T04:07:34.238Z,0.00
2019-02-06T04:08:34.182Z,0.00
2019-02-06T04:09:34.138Z,0.00
2019-02-06T04:10:34.142Z,0.00
2019-02-06T04:11:34.123Z,0.00
2019-02-06T04:12:34.168Z,0.00
2019-02-06T04:13:34.102Z,0.00
2019-02-06T04:14:34.089Z,0.00
2019-02-06T04:15:34.078Z,0.00
2019-02-06T04:16:34.065Z,0.00
2019-02-06T04:17:34.078Z,0.00
2019-02-06T04:18:34.043Z,0.00
2019-02-06T04:19:34.041Z,0.00
2019-02-06T04:20:34.022Z,0.00
2019-02-06T04:21:34.011Z,0.00
2019-02-06T04:22:34.042Z,0.00
2019-02-06T04:23:34.024Z,0.00
2019-02-06T04:24:33.995Z,0.00
2019-02-06T04:25:33.976Z,0.00
2019-02-06T04:26:33.964Z,0.00
2019-02-06T04:27:33.945Z,0.00
2019-02-06T04:28:33.972Z,0.00
2019-02-06T04:29:33.926Z,0.00
2019-02-06T04:30:33.918Z,0.00
2019-02-06T04:31:33.903Z,0.00
2019-02-06T04:32:33.893Z,0.00
2019-02-06T04:33:33.903Z,0.00
2019-02-06T04:34:33.872Z,0.00
2019-02-06T04:35:33.865Z,0.00
2019-02-06T04:36:33.855Z,0.00
2019-02-06T04:37:33.845Z,0.00
2019-02-06T04:38:33.862Z,0.00
2019-02-06T04:39:33.814Z,0.00
2019-02-06T04:40:33.838Z,0.00
2019-02-06T04:41:33.797Z,0.00
2019-02-06T04:42:33.790Z,0.00
2019-02-06T04:43:33.777Z,0.00
2019-02-06T04:44:33.775Z,0.00
2019-02-06T04:45:33.779Z,0.00
2019-02-06T04:46:33.756Z,0.00
2019-02-06T04:47:33.737Z,0.00
2019-02-06T04:48:33.722Z,0.00
2019-02-06T04:49:33.741Z,0.00
2019-02-06T04:50:33.709Z,0.00
2019-02-06T04:51:33.700Z,0.00
2019-02-06T04:52:33.680Z,0.00
2019-02-06T04:53:33.673Z,0.00
2019-02-06T04:54:33.696Z,0.00
2019-02-06T04:55:33.659Z,0.00
2019-02-06T04:56:33.664Z,0.00
2019-02-06T04:57:33.630Z,0.00
2019-02-06T04:58:33.611Z,0.00
2019-02-06T04:59:33.647Z,0.00
2019-02-06T05:00:33.637Z,0.00
2019-02-06T05:01:33.581Z,0.00
2019-02-06T05:02:33.578Z,0.00
2019-02-06T05:03:33.564Z,0.00
2019-02-06T05:04:33.567Z,0.00
2019-02-06T05:05:33.570Z,0.00
2019-02-06T05:06:33.531Z,0.00
2019-02-06T05:07:33.530Z,0.00
2019-02-06T05:08:33.513Z,0.00
2019-02-06T05:09:33.501Z,0.00
2019-02-06T05:10:33.511Z,0.00
2019-02-06T05:11:33.488Z,0.00
2019-02-06T05:12:33.479Z,0.00
2019-02-06T05:13:33.454Z,0.00
2019-02-06T05:14:33.441Z,0.00
2019-02-06T05:15:33.465Z,0.00
2019-02-06T05:16:33.441Z,0.00
2019-02-06T05:17:33.428Z,0.00
2019-02-06T05:18:33.437Z,0.00
2019-02-06T05:19:33.388Z,0.00
2019-02-06T05:20:33.381Z,0.00
2019-02-06T05:21:33.408Z,0.00
2019-02-06T05:22:33.378Z,0.00
2019-02-06T05:23:33.342Z,0.00
2019-02-06T05:24:33.336Z,0.00
2019-02-06T05:25:33.323Z,0.00
2019-02-06T05:26:33.368Z,0.00
2019-02-06T05:27:33.307Z,0.00
2019-02-06T05:28:33.305Z,0.00
2019-02-06T05:29:33.312Z,0.00
2019-02-06T05:30:33.328Z,0.00
2019-02-06T05:31:33.377Z,0.00
2019-02-06T05:32:33.251Z,0.00
2019-02-06T05:33:33.241Z,0.00
2019-02-06T05:34:33.249Z,0.00
2019-02-06T05:35:33.235Z,0.00
2019-02-06T05:36:33.206Z,0.00
2019-02-06T05:37:33.238Z,0.00
2019-02-06T05:38:33.209Z,0.00
2019-02-06T05:39:33.180Z,0.00
2019-02-06T05:40:33.169Z,0.00
2019-02-06T05:41:33.159Z,0.00
2019-02-06T05:42:33.176Z,0.00
2019-02-06T05:43:33.145Z,0.00
2019-02-06T05:44:33.117Z,0.00
2019-02-06T05:45:33.230Z,0.00
2019-02-06T05:46:33.099Z,0.00
2019-02-06T05:47:33.126Z,0.00
2019-02-06T05:48:33.081Z,0.00
2019-02-06T05:49:33.073Z,0.00
2019-02-06T05:50:33.059Z,0.00
2019-02-06T05:51:33.053Z,0.00
2019-02-06T05:52:33.067Z,0.00
2019-02-06T05:53:33.053Z,0.00
2019-02-06T05:54:33.019Z,0.00
2019-02-06T05:55:33.002Z,0.00
2019-02-06T05:56:32.987Z,0.00
2019-02-06T05:57:32.987Z,0.00
2019-02-06T05:58:32.998Z,0.00
2019-02-06T05:59:32.961Z,0.00
2019-02-06T06:00:32.952Z,0.00
2019-02-06T06:01:32.943Z,0.00
2019-02-06T06:02:32.929Z,0.00
2019-02-06T06:03:33.098Z,0.00
2019-02-06T06:04:32.909Z,0.00
2019-02-06T06:05:32.894Z,0.00
2019-02-06T06:06:32.886Z,0.00
2019-02-06T06:07:44.748Z,0.00
2019-02-06T06:08:33.885Z,0.00
2019-02-06T06:09:32.874Z,0.00
2019-02-06T06:10:32.845Z,0.00
2019-02-06T06:11:32.833Z,0.00
2019-02-06T06:12:32.826Z,0.00
2019-02-06T06:13:32.826Z,0.00
2019-02-06T06:14:32.822Z,0.00
2019-02-06T06:15:32.791Z,0.00
2019-02-06T06:16:32.776Z,4.00
2019-02-06T06:17:32.766Z,0.00
2019-02-06T06:18:32.758Z,0.00
2019-02-06T06:19:32.777Z,4.00
2019-02-06T06:20:32.733Z,0.00
2019-02-06T06:21:32.728Z,0.00
2019-02-06T06:22:32.723Z,4.00
2019-02-06T06:23:32.702Z,0.00
2019-02-06T06:24:32.710Z,4.00
2019-02-06T06:25:32.725Z,4.00
2019-02-06T06:26:32.668Z,4.00
2019-02-06T06:27:32.675Z,8.00
2019-02-06T06:28:32.643Z,4.00
2019-02-06T06:29:32.632Z,4.00
2019-02-06T06:30:32.664Z,4.00
2019-02-06T06:31:32.613Z,8.00
2019-02-06T06:32:32.613Z,8.00
2019-02-06T06:33:32.591Z,8.00
2019-02-06T06:34:32.576Z,12.00
2019-02-06T06:35:32.611Z,12.00
2019-02-06T06:36:32.563Z,16.00
2019-02-06T06:37:32.548Z,20.00
2019-02-06T06:38:32.533Z,20.00
2019-02-06T06:39:32.536Z,20.00
2019-02-06T06:40:32.512Z,20.00
2019-02-06T06:41:32.532Z,24.00
2019-02-06T06:42:32.498Z,28.00
2019-02-06T06:43:32.483Z,28.00
2019-02-06T06:44:32.479Z,28.00
2019-02-06T06:45:32.476Z,32.00
2019-02-06T06:46:32.476Z,32.00
2019-02-06T06:47:32.443Z,36.00
2019-02-06T06:48:32.445Z,40.00
2019-02-06T06:49:32.414Z,44.00
2019-02-06T06:50:32.460Z,48.00
2019-02-06T06:51:32.438Z,52.00
2019-02-06T06:52:32.381Z,52.00
2019-02-06T06:53:32.374Z,56.00
2019-02-06T06:54:32.378Z,60.00
2019-02-06T06:55:35.050Z,64.00
2019-02-06T06:56:32.351Z,68.00
2019-02-06T06:57:32.368Z,68.00
2019-02-06T06:58:32.324Z,72.00
2019-02-06T06:59:32.361Z,76.00
2019-02-06T07:00:32.295Z,80.00
2019-02-06T07:01:32.338Z,84.00
2019-02-06T07:02:32.439Z,88.00
2019-02-06T07:03:32.382Z,88.00
2019-02-06T07:04:32.254Z,92.00
2019-02-06T07:05:32.260Z,96.00
2019-02-06T07:06:32.239Z,100.00
2019-02-06T07:07:32.258Z,104.00
2019-02-06T07:08:32.217Z,108.00
2019-02-06T07:09:32.198Z,108.00
2019-02-06T07:10:32.196Z,112.00
2019-02-06T07:11:32.177Z,116.00
2019-02-06T07:12:32.167Z,120.00
2019-02-06T07:13:32.179Z,120.00
2019-02-06T07:14:32.149Z,128.00
2019-02-06T07:15:32.137Z,128.00
2019-02-06T07:16:41.934Z,132.00
2019-02-06T07:17:32.118Z,140.00
2019-02-06T07:18:40.088Z,144.00
2019-02-06T07:19:32.106Z,144.00
2019-02-06T07:20:32.083Z,148.00
2019-02-06T07:21:32.071Z,148.00
2019-02-06T07:22:32.073Z,148.00
2019-02-06T07:23:32.046Z,156.00
2019-02-06T07:24:32.038Z,160.00
2019-02-06T07:25:32.022Z,160.00
2019-02-06T07:26:32.016Z,168.00
2019-02-06T07:27:32.022Z,172.00
2019-02-06T07:28:31.997Z,176.00
2019-02-06T07:29:31.989Z,180.00
2019-02-06T07:30:31.978Z,184.00
2019-02-06T07:31:31.964Z,192.00
2019-02-06T07:32:32.073Z,196.00
2019-02-06T07:33:31.975Z,200.00
2019-02-06T07:34:31.939Z,200.00
2019-02-06T07:35:31.924Z,200.00
2019-02-06T07:36:31.916Z,204.00
2019-02-06T07:37:31.899Z,208.00
2019-02-06T07:38:31.954Z,208.00
2019-02-06T07:39:31.878Z,208.00
2019-02-06T07:40:31.867Z,212.00
2019-02-06T07:41:31.876Z,212.00
2019-02-06T07:42:31.841Z,220.00
2019-02-06T07:43:31.888Z,220.00
2019-02-06T07:44:31.834Z,220.00
2019-02-06T07:45:31.810Z,224.00
2019-02-06T07:46:31.809Z,220.00
2019-02-06T07:47:31.798Z,220.00
2019-02-06T07:48:31.778Z,224.00
2019-02-06T07:49:31.812Z,228.00
2019-02-06T07:50:31.772Z,224.00
2019-02-06T07:51:31.744Z,228.00
2019-02-06T07:52:31.737Z,232.00
2019-02-06T07:53:31.730Z,236.00
2019-02-06T07:54:31.735Z,240.00
2019-02-06T07:55:31.708Z,244.00
2019-02-06T07:56:31.700Z,248.00
2019-02-06T07:57:31.722Z,252.00
2019-02-06T07:58:31.668Z,264.00
2019-02-06T07:59:31.705Z,272.00
2019-02-06T08:00:31.652Z,280.00
2019-02-06T08:01:31.644Z,292.00
2019-02-06T08:02:31.666Z,300.00
2019-02-06T08:03:31.626Z,308.00
2019-02-06T08:04:31.628Z,320.00
2019-02-06T08:05:31.633Z,328.00
2019-02-06T08:06:31.582Z,336.00
2019-02-06T08:07:31.581Z,348.00
2019-02-06T08:08:36.060Z,356.00
2019-02-06T08:09:31.570Z,364.00
2019-02-06T08:10:31.572Z,372.00
2019-02-06T08:11:31.534Z,384.00
2019-02-06T08:12:31.525Z,388.00
2019-02-06T08:13:31.513Z,392.00
2019-02-06T08:14:31.498Z,400.00
2019-02-06T08:15:31.543Z,412.00
2019-02-06T08:16:31.493Z,424.00
2019-02-06T08:17:31.466Z,416.00
2019-02-06T08:18:31.457Z,428.00
2019-02-06T08:19:31.499Z,448.00
2019-02-06T08:20:31.433Z,448.00
2019-02-06T08:21:31.432Z,452.00
2019-02-06T08:22:31.418Z,448.00
2019-02-06T08:23:31.404Z,456.00
2019-02-06T08:24:31.392Z,448.00
2019-02-06T08:25:31.407Z,444.00
2019-02-06T08:26:31.374Z,444.00
2019-02-06T08:27:31.366Z,448.00
2019-02-06T08:28:31.359Z,444.00
2019-02-06T08:29:31.358Z,444.00
2019-02-06T08:30:31.346Z,444.00
2019-02-06T08:31:32.001Z,432.00
2019-02-06T08:32:31.310Z,424.00
2019-02-06T08:33:31.302Z,424.00
2019-02-06T08:34:31.294Z,436.00
2019-02-06T08:35:31.305Z,448.00
2019-02-06T08:36:31.264Z,464.00
2019-02-06T08:37:31.249Z,484.00
2019-02-06T08:38:31.243Z,468.00
2019-02-06T08:39:31.237Z,428.00
2019-02-06T08:40:31.251Z,436.00
2019-02-06T08:41:31.250Z,436.00
2019-02-06T08:42:31.213Z,444.00
2019-02-06T08:43:31.198Z,452.00
2019-02-06T08:44:31.176Z,480.00
2019-02-06T08:45:31.175Z,496.00
2019-02-06T08:46:31.183Z,508.00
2019-02-06T08:47:31.143Z,528.00
2019-02-06T08:48:31.138Z,548.00
2019-02-06T08:49:31.137Z,564.00
2019-02-06T08:50:31.116Z,560.00
2019-02-06T08:51:31.133Z,572.00
2019-02-06T08:52:31.105Z,584.00
2019-02-06T08:53:31.083Z,584.00
2019-02-06T08:54:31.075Z,584.00
2019-02-06T08:55:31.069Z,592.00
2019-02-06T08:56:31.075Z,584.00
2019-02-06T08:57:31.055Z,596.00
2019-02-06T08:58:31.025Z,608.00
2019-02-06T08:59:31.015Z,612.00
2019-02-06T09:00:31.014Z,620.00
2019-02-06T09:01:31.531Z,616.00
2019-02-06T09:02:30.985Z,620.00
2019-02-06T09:03:30.980Z,620.00
2019-02-06T09:04:30.979Z,620.00
2019-02-06T09:05:30.957Z,636.00
2019-02-06T09:06:30.966Z,636.00
2019-02-06T09:07:30.955Z,640.00
2019-02-06T09:08:30.933Z,648.00
2019-02-06T09:09:30.923Z,648.00
2019-02-06T09:10:31.029Z,648.00
2019-02-06T09:11:30.894Z,652.00
2019-02-06T09:12:30.901Z,664.00
2019-02-06T09:13:30.897Z,660.00
2019-02-06T09:14:30.862Z,672.00
2019-02-06T09:15:30.871Z,688.00
2019-02-06T09:16:30.855Z,676.00
2019-02-06T09:17:30.844Z,680.00
2019-02-06T09:18:30.820Z,672.00
2019-02-06T09:19:30.812Z,692.00
2019-02-06T09:20:30.794Z,680.00
2019-02-06T09:21:30.789Z,672.00
2019-02-06T09:22:30.822Z,668.00
2019-02-06T09:23:30.761Z,684.00
2019-02-06T09:24:30.769Z,672.00
2019-02-06T09:25:30.747Z,656.00
2019-02-06T09:26:35.482Z,660.00
2019-02-06T09:27:31.773Z,656.00
2019-02-06T09:28:30.735Z,672.00
2019-02-06T09:29:30.705Z,672.00
2019-02-06T09:30:30.687Z,668.00
2019-02-06T09:31:30.678Z,684.00
2019-02-06T09:32:30.673Z,688.00
2019-02-06T09:33:30.687Z,664.00
2019-02-06T09:34:30.649Z,636.00
2019-02-06T09:35:30.680Z,656.00
2019-02-06T09:36:30.627Z,676.00
2019-02-06T09:37:30.614Z,672.00
2019-02-06T09:38:30.609Z,640.00
2019-02-06T09:39:30.605Z,632.00
2019-02-06T09:40:30.611Z,640.00
2019-02-06T09:41:30.590Z,636.00
2019-02-06T09:42:30.560Z,628.00
2019-02-06T09:43:30.552Z,604.00
2019-02-06T09:44:30.541Z,624.00
2019-02-06T09:45:30.541Z,632.00
2019-02-06T09:46:30.552Z,640.00
2019-02-06T09:47:30.505Z,636.00
2019-02-06T09:48:30.519Z,644.00
2019-02-06T09:49:30.479Z,644.00
2019-02-06T09:50:30.472Z,660.00
2019-02-06T09:51:30.499Z,668.00
2019-02-06T09:52:30.449Z,684.00
2019-02-06T09:53:30.444Z,700.00
2019-02-06T09:54:30.429Z,708.00
2019-02-06T09:55:30.436Z,740.00
2019-02-06T09:56:30.466Z,744.00
2019-02-06T09:57:30.418Z,716.00
2019-02-06T09:58:30.377Z,712.00
2019-02-06T09:59:30.372Z,708.00
2019-02-06T10:00:30.361Z,700.00
2019-02-06T10:01:30.353Z,708.00
2019-02-06T10:02:30.362Z,708.00
2019-02-06T10:03:30.328Z,724.00
2019-02-06T10:04:30.313Z,740.00
2019-02-06T10:05:30.315Z,756.00
2019-02-06T10:06:30.304Z,764.00
2019-02-06T10:07:30.321Z,772.00
2019-02-06T10:08:30.274Z,756.00
2019-02-06T10:09:30.261Z,756.00
2019-02-06T10:10:30.249Z,768.00
2019-02-06T10:11:30.247Z,764.00
2019-02-06T10:12:30.225Z,740.00
2019-02-06T10:13:30.236Z,728.00
2019-02-06T10:14:30.203Z,732.00
2019-02-06T10:15:30.203Z,744.00
2019-02-06T10:16:30.214Z,716.00
2019-02-06T10:17:30.174Z,760.00
2019-02-06T10:18:30.166Z,748.00
2019-02-06T10:19:30.187Z,712.00
2019-02-06T10:20:30.155Z,648.00
2019-02-06T10:21:30.127Z,680.00
2019-02-06T10:22:30.511Z,704.00
2019-02-06T10:23:30.109Z,732.00
2019-02-06T10:24:30.105Z,748.00
2019-02-06T10:25:30.082Z,736.00
2019-02-06T10:26:30.075Z,772.00
2019-02-06T10:27:30.075Z,772.00
2019-02-06T10:28:30.071Z,776.00
2019-02-06T10:29:30.054Z,764.00
2019-02-06T10:30:30.053Z,756.00
2019-02-06T10:31:32.820Z,768.00
2019-02-06T10:32:30.010Z,776.00
2019-02-06T10:33:30.030Z,764.00
2019-02-06T10:34:30.000Z,764.00
2019-02-06T10:35:29.977Z,768.00
2019-02-06T10:36:29.967Z,768.00
2019-02-06T10:37:29.977Z,764.00
2019-02-06T10:38:29.966Z,764.00
2019-02-06T10:39:34.546Z,768.00
2019-02-06T10:40:29.941Z,760.00
2019-02-06T10:41:29.909Z,652.00
2019-02-06T10:42:29.921Z,744.00
2019-02-06T10:43:32.658Z,776.00
2019-02-06T10:44:30.917Z,776.00
2019-02-06T10:45:29.867Z,768.00
2019-02-06T10:46:29.860Z,748.00
2019-02-06T10:47:29.863Z,708.00
2019-02-06T10:48:29.841Z,744.00
2019-02-06T10:49:29.828Z,744.00
2019-02-06T10:50:29.840Z,720.00
2019-02-06T10:51:29.817Z,704.00
2019-02-06T10:52:29.794Z,720.00
2019-02-06T10:53:29.810Z,736.00
2019-02-06T10:54:29.812Z,732.00
2019-02-06T10:55:29.815Z,728.00
2019-02-06T10:56:29.763Z,736.00
2019-02-06T10:57:29.737Z,724.00
2019-02-06T10:58:29.732Z,720.00
2019-02-06T10:59:29.759Z,716.00
2019-02-06T11:00:30.037Z,712.00
2019-02-06T11:01:29.729Z,708.00
2019-02-06T11:02:29.749Z,716.00
2019-02-06T11:03:29.677Z,712.00
2019-02-06T11:04:29.663Z,716.00
2019-02-06T11:05:29.652Z,720.00
2019-02-06T11:06:29.679Z,700.00
2019-02-06T11:07:29.640Z,672.00
2019-02-06T11:08:29.624Z,700.00
2019-02-06T11:09:29.622Z,708.00
2019-02-06T11:10:29.598Z,696.00
2019-02-06T11:11:29.728Z,692.00
2019-02-06T11:12:29.599Z,700.00
2019-02-06T11:13:29.570Z,688.00
2019-02-06T11:14:29.562Z,696.00
2019-02-06T11:15:29.543Z,684.00
2019-02-06T11:16:29.559Z,676.00
2019-02-06T11:17:29.561Z,664.00
2019-02-06T11:18:29.507Z,672.00
2019-02-06T11:19:29.530Z,684.00
2019-02-06T11:20:29.493Z,688.00
2019-02-06T11:21:29.484Z,672.00
2019-02-06T11:22:29.472Z,668.00
2019-02-06T11:23:29.473Z,672.00
2019-02-06T11:24:29.455Z,688.00
2019-02-06T11:25:29.434Z,688.00
2019-02-06T11:26:29.452Z,688.00
2019-02-06T11:27:29.425Z,696.00
2019-02-06T11:28:29.464Z,688.00
2019-02-06T11:29:29.392Z,692.00
2019-02-06T11:30:29.442Z,696.00
2019-02-06T11:31:29.414Z,704.00
2019-02-06T11:32:29.374Z,708.00
2019-02-06T11:33:29.354Z,700.00
2019-02-06T11:34:29.353Z,688.00
2019-02-06T11:35:29.379Z,676.00
2019-02-06T11:36:29.321Z,664.00
2019-02-06T11:37:29.374Z,644.00
2019-02-06T11:38:29.313Z,628.00
2019-02-06T11:39:29.315Z,600.00
2019-02-06T11:40:29.313Z,588.00
2019-02-06T11:41:29.350Z,620.00
2019-02-06T11:42:29.271Z,628.00
2019-02-06T11:43:32.045Z,624.00
2019-02-06T11:44:29.278Z,616.00
2019-02-06T11:45:29.236Z,640.00
2019-02-06T11:46:29.377Z,632.00
2019-02-06T11:47:29.260Z,620.00
2019-02-06T11:48:29.227Z,640.00
2019-02-06T11:49:29.188Z,648.00
2019-02-06T11:50:29.285Z,640.00
2019-02-06T11:51:29.179Z,632.00
2019-02-06T11:52:29.146Z,620.00
2019-02-06T11:53:29.176Z,580.00
2019-02-06T11:54:29.120Z,616.00
2019-02-06T11:55:29.200Z,588.00
2019-02-06T11:56:29.179Z,616.00
2019-02-06T11:57:29.095Z,616.00
2019-02-06T11:58:29.077Z,604.00
2019-02-06T11:59:29.068Z,584.00
2019-02-06T12:00:29.087Z,564.00
2019-02-06T12:01:29.080Z,592.00
2019-02-06T12:02:37.025Z,632.00
2019-02-06T12:03:30.090Z,668.00
2019-02-06T12:04:29.020Z,676.00
2019-02-06T12:05:29.000Z,680.00
2019-02-06T12:06:29.011Z,676.00
2019-02-06T12:07:28.995Z,672.00
2019-02-06T12:08:31.208Z,664.00
2019-02-06T12:09:28.979Z,660.00
2019-02-06T12:10:28.995Z,660.00
2019-02-06T12:11:28.980Z,664.00
2019-02-06T12:12:28.962Z,660.00
2019-02-06T12:13:28.921Z,668.00
2019-02-06T12:14:28.909Z,668.00
2019-02-06T12:15:28.908Z,672.00
2019-02-06T12:16:28.997Z,672.00
2019-02-06T12:17:28.875Z,664.00
2019-02-06T12:18:28.901Z,600.00
2019-02-06T12:19:28.863Z,656.00
2019-02-06T12:20:28.870Z,636.00
2019-02-06T12:21:28.872Z,592.00
2019-02-06T12:22:28.822Z,616.00
2019-02-06T12:23:32.369Z,640.00
2019-02-06T12:24:28.815Z,644.00
2019-02-06T12:25:28.786Z,664.00
2019-02-06T12:26:28.777Z,668.00
2019-02-06T12:27:28.781Z,672.00
2019-02-06T12:28:28.751Z,684.00
2019-02-06T12:29:28.757Z,688.00
2019-02-06T12:30:28.736Z,664.00
2019-02-06T12:31:28.725Z,680.00
2019-02-06T12:32:28.713Z,656.00
2019-02-06T12:33:28.719Z,656.00
2019-02-06T12:34:28.721Z,664.00
2019-02-06T12:35:28.676Z,680.00
2019-02-06T12:36:28.720Z,672.00
2019-02-06T12:37:28.661Z,672.00
2019-02-06T12:38:28.648Z,644.00
2019-02-06T12:39:28.661Z,644.00
2019-02-06T12:40:28.628Z,648.00
2019-02-06T12:41:28.616Z,644.00
2019-02-06T12:42:28.649Z,616.00
2019-02-06T12:43:28.603Z,628.00
2019-02-06T12:44:28.598Z,632.00
2019-02-06T12:45:28.616Z,636.00
2019-02-06T12:46:28.562Z,632.00
2019-02-06T12:47:28.562Z,624.00
2019-02-06T12:48:28.537Z,624.00
2019-02-06T12:49:28.539Z,624.00
2019-02-06T12:50:28.562Z,608.00
2019-02-06T12:51:28.514Z,592.00
2019-02-06T12:52:28.495Z,580.00
2019-02-06T12:53:28.492Z,588.00
2019-02-06T12:54:28.492Z,580.00